createdAt,value
2022-12-01T00:01:45.588Z,94841.34
2022-12-01T00:04:11.895Z,94844.56
2022-12-01T00:06:38.145Z,94838.78
2022-12-01T00:09:04.410Z,94838.22
2022-12-01T00:11:30.665Z,94840.28
2022-12-01T00:13:56.928Z,94843.13
2022-12-01T00:16:23.290Z,94837.09
2022-12-01T00:18:49.566Z,94831.41
2022-12-01T00:21:15.842Z,94837.75
2022-12-01T00:23:42.087Z,94834.75
2022-12-01T00:26:08.346Z,94836.53
2022-12-01T00:28:34.623Z,94840.88
2022-12-01T00:31:00.883Z,94839.53
2022-12-01T00:33:27.144Z,94835.97
2022-12-01T00:35:53.390Z,94841.75
2022-12-01T00:38:19.661Z,94838.41
2022-12-01T00:40:45.920Z,94842.81
2022-12-01T00:43:12.167Z,94841.19
2022-12-01T00:45:38.514Z,94837.75
2022-12-01T00:48:04.770Z,94835.03
2022-12-01T00:50:31.011Z,94834.34
2022-12-01T00:52:57.256Z,94839.00
2022-12-01T00:55:23.517Z,94839.91
2022-12-01T00:57:49.773Z,94835.50
2022-12-01T01:00:16.046Z,94840.72
2022-12-01T01:02:42.299Z,94838.81
2022-12-01T01:05:08.594Z,94841.44
2022-12-01T01:07:34.889Z,94840.63
2022-12-01T01:10:01.154Z,94840.88
2022-12-01T01:12:27.395Z,94845.28
2022-12-01T01:14:53.650Z,94844.59
2022-12-01T01:17:19.894Z,94843.69
2022-12-01T01:19:46.413Z,94850.44
2022-12-01T01:22:12.785Z,94843.69
2022-12-01T01:24:39.030Z,94843.28
2022-12-01T01:27:05.273Z,94851.41
2022-12-01T01:29:31.526Z,94848.66
2022-12-01T01:31:57.785Z,94842.97
2022-12-01T01:34:24.039Z,94846.56
2022-12-01T01:36:50.341Z,94841.03
2022-12-01T01:39:16.602Z,94842.97
2022-12-01T01:41:42.857Z,94846.78
2022-12-01T01:44:09.120Z,94846.31
2022-12-01T01:46:35.421Z,94849.59
2022-12-01T01:49:01.698Z,94845.78
2022-12-01T01:51:27.948Z,94842.06
2022-12-01T01:53:54.181Z,94844.94
2022-12-01T01:56:20.429Z,94847.28
2022-12-01T01:58:46.666Z,94850.03
2022-12-01T02:01:12.929Z,94846.06
2022-12-01T02:03:39.209Z,94845.09
2022-12-01T02:06:05.470Z,94857.88
2022-12-01T02:08:31.707Z,94841.94
2022-12-01T02:10:57.974Z,94850.00
2022-12-01T02:13:24.231Z,94848.50
2022-12-01T02:15:50.462Z,94857.47
2022-12-01T02:18:16.720Z,94863.09
2022-12-01T02:20:42.968Z,94855.00
2022-12-01T02:23:09.208Z,94863.09
2022-12-01T02:25:35.487Z,94866.25
2022-12-01T02:28:01.753Z,94869.69
2022-12-01T02:30:28.027Z,94860.88
2022-12-01T02:32:54.345Z,94854.44
2022-12-01T02:35:20.597Z,94856.91
2022-12-01T02:37:46.855Z,94853.56
2022-12-01T02:40:13.123Z,94856.59
2022-12-01T02:42:39.380Z,94861.00
2022-12-01T02:45:05.649Z,94850.59
2022-12-01T02:47:31.882Z,94854.84
2022-12-01T02:49:58.173Z,94852.50
2022-12-01T02:52:24.462Z,94843.19
2022-12-01T02:54:50.701Z,94844.13
2022-12-01T02:57:16.967Z,94843.97
2022-12-01T02:59:43.228Z,94847.69
2022-12-01T03:02:09.580Z,94846.19
2022-12-01T03:04:35.864Z,94840.56
2022-12-01T03:07:02.118Z,94834.22
2022-12-01T03:09:28.374Z,94835.91
2022-12-01T03:11:54.628Z,94836.03
2022-12-01T03:14:20.886Z,94833.97
2022-12-01T03:16:47.129Z,94838.78
2022-12-01T03:19:13.381Z,94837.25
2022-12-01T03:21:39.633Z,94834.66
2022-12-01T03:24:05.874Z,94835.34
2022-12-01T03:26:32.137Z,94835.06
2022-12-01T03:28:58.389Z,94849.06
2022-12-01T03:31:24.704Z,94846.88
2022-12-01T03:33:51.002Z,94837.09
2022-12-01T03:36:17.263Z,94840.00
2022-12-01T03:38:43.511Z,94836.84
2022-12-01T03:41:09.782Z,94832.84
2022-12-01T03:43:36.022Z,94835.84
2022-12-01T03:46:02.384Z,94833.00
2022-12-01T03:48:28.652Z,94831.78
2022-12-01T03:50:54.899Z,94839.47
2022-12-01T03:53:21.148Z,94841.66
2022-12-01T03:55:47.401Z,94842.34
2022-12-01T03:58:13.656Z,94837.66
2022-12-01T04:00:39.917Z,94842.47
2022-12-01T04:03:06.280Z,94842.88
2022-12-01T04:05:32.589Z,94855.09
2022-12-01T04:07:58.883Z,94850.56
2022-12-01T04:10:25.162Z,94850.84
2022-12-01T04:12:51.398Z,94856.50
2022-12-01T04:15:17.666Z,94851.84
2022-12-01T04:17:43.906Z,94848.50
2022-12-01T04:20:10.149Z,94847.13
2022-12-01T04:22:36.396Z,94844.69
2022-12-01T04:25:02.716Z,94847.13
2022-12-01T04:27:28.970Z,94845.13
2022-12-01T04:29:55.214Z,94844.84
2022-12-01T04:32:21.582Z,94852.25
2022-12-01T04:34:47.841Z,94851.28
2022-12-01T04:37:14.104Z,94848.09
2022-12-01T04:39:40.358Z,94852.66
2022-12-01T04:42:06.614Z,94862.81
2022-12-01T04:44:35.077Z,94854.44
2022-12-01T04:47:01.651Z,94848.94
2022-12-01T04:49:27.973Z,94857.31
2022-12-01T04:51:54.214Z,94859.09
2022-12-01T04:54:20.465Z,94857.88
2022-12-01T04:56:46.743Z,94847.72
2022-12-01T04:59:12.982Z,94854.84
2022-12-01T05:01:39.275Z,94853.47
2022-12-01T05:04:05.610Z,94858.03
2022-12-01T05:06:31.860Z,94855.13
2022-12-01T05:08:58.113Z,94853.78
2022-12-01T05:11:24.398Z,94863.53
2022-12-01T05:13:50.637Z,94859.69
2022-12-01T05:16:16.945Z,94855.31
2022-12-01T05:18:43.237Z,94859.41
2022-12-01T05:21:09.531Z,94856.75
2022-12-01T05:23:35.783Z,94860.38
2022-12-01T05:26:02.022Z,94853.38
2022-12-01T05:28:28.257Z,94855.44
2022-12-01T05:30:54.509Z,94861.03
2022-12-01T05:33:20.772Z,94867.38
2022-12-01T05:35:47.060Z,94858.53
2022-12-01T05:38:13.329Z,94861.00
2022-12-01T05:40:39.574Z,94860.50
2022-12-01T05:43:05.825Z,94864.09
2022-12-01T05:45:32.128Z,94859.84
2022-12-01T05:47:58.497Z,94856.94
2022-12-01T05:50:24.741Z,94857.13
2022-12-01T05:52:50.981Z,94853.38
2022-12-01T05:55:17.237Z,94856.81
2022-12-01T05:57:43.502Z,94856.03
2022-12-01T06:00:09.748Z,94846.69
2022-12-01T06:02:35.998Z,94849.75
2022-12-01T06:05:02.239Z,94853.28
2022-12-01T06:07:28.549Z,94855.94
2022-12-01T06:09:54.805Z,94855.06
2022-12-01T06:12:21.092Z,94847.00
2022-12-01T06:14:47.355Z,94855.09
2022-12-01T06:17:13.595Z,94854.53
2022-12-01T06:19:39.837Z,94864.44
2022-12-01T06:22:06.093Z,94865.94
2022-12-01T06:24:32.343Z,94864.31
2022-12-01T06:26:58.591Z,94866.91
2022-12-01T06:29:24.842Z,94863.19
2022-12-01T06:31:51.185Z,94875.41
2022-12-01T06:34:17.494Z,94871.56
2022-12-01T06:36:43.748Z,94863.34
2022-12-01T06:39:10.005Z,94873.91
2022-12-01T06:41:36.275Z,94868.69
2022-12-01T06:44:02.513Z,94869.06
2022-12-01T06:46:28.812Z,94864.56
2022-12-01T06:48:55.129Z,94875.38
2022-12-01T06:51:21.384Z,94869.38
2022-12-01T06:53:47.630Z,94879.94
2022-12-01T06:56:13.890Z,94865.78
2022-12-01T06:58:40.314Z,94874.28
2022-12-01T07:01:06.719Z,94871.44
2022-12-01T07:03:32.974Z,94879.63
2022-12-01T07:05:59.234Z,94887.63
2022-12-01T07:08:25.495Z,94890.88
2022-12-01T07:10:51.762Z,94892.13
2022-12-01T07:13:18.005Z,94899.81
2022-12-01T07:15:44.270Z,94896.53
2022-12-01T07:18:10.529Z,94903.25
2022-12-01T07:20:36.789Z,94899.16
2022-12-01T07:23:03.044Z,94891.72
2022-12-01T07:25:30.401Z,94889.81
2022-12-01T07:27:56.651Z,94900.91
2022-12-01T07:30:28.094Z,94897.47
2022-12-01T07:32:54.748Z,94898.28
2022-12-01T07:35:21.013Z,94891.56
2022-12-01T07:37:47.292Z,94903.22
2022-12-01T07:40:13.550Z,94904.88
2022-12-01T07:42:39.791Z,94909.84
2022-12-01T07:45:06.041Z,94912.47
2022-12-01T07:47:32.282Z,94910.69
2022-12-01T07:49:58.525Z,94908.59
2022-12-01T07:52:24.777Z,94909.69
2022-12-01T07:54:51.037Z,94919.28
2022-12-01T07:57:17.306Z,94915.84
2022-12-01T07:59:43.564Z,94908.31
2022-12-01T08:02:09.905Z,94913.53
2022-12-01T08:04:36.233Z,94907.75
2022-12-01T08:07:02.515Z,94919.84
2022-12-01T08:09:28.760Z,94918.75
2022-12-01T08:11:55.137Z,94914.19
2022-12-01T08:14:21.413Z,94912.00
2022-12-01T08:16:47.669Z,94919.84
2022-12-01T08:19:13.926Z,94921.06
2022-12-01T08:21:40.175Z,94917.91
2022-12-01T08:24:06.418Z,94917.63
2022-12-01T08:26:32.683Z,94913.09
2022-12-01T08:28:58.957Z,94918.44
2022-12-01T08:31:25.261Z,94916.25
2022-12-01T08:33:51.572Z,94918.88
2022-12-01T08:36:17.832Z,94914.06
2022-12-01T08:38:44.087Z,94906.50
2022-12-01T08:41:10.359Z,94912.25
2022-12-01T08:46:22.959Z,94912.13
2022-12-01T08:48:49.263Z,94908.25
2022-12-01T08:51:15.521Z,94916.38
2022-12-01T08:53:45.422Z,94913.47
2022-12-01T08:56:12.197Z,94907.97
2022-12-01T08:58:38.440Z,94915.41
2022-12-01T09:01:04.697Z,94920.09
2022-12-01T09:03:30.965Z,94921.72
2022-12-01T09:05:57.224Z,94922.13
2022-12-01T09:08:23.469Z,94921.97
2022-12-01T09:10:49.723Z,94910.69
2022-12-01T09:13:15.956Z,94917.53
2022-12-01T09:15:42.194Z,94914.91
2022-12-01T09:18:08.437Z,94917.53
2022-12-01T09:20:34.682Z,94917.41
2022-12-01T09:23:00.946Z,94913.94
2022-12-01T09:25:27.190Z,94915.88
2022-12-01T09:27:53.455Z,94915.75
2022-12-01T09:30:19.713Z,94912.56
2022-12-01T09:32:45.977Z,94912.31
2022-12-01T09:35:12.226Z,94912.44
2022-12-01T09:37:38.492Z,94914.91
2022-12-01T09:40:04.757Z,94916.81
2022-12-01T09:42:35.317Z,94923.94
2022-12-01T09:45:01.978Z,94921.31
2022-12-01T09:47:28.245Z,94930.28
2022-12-01T09:49:54.688Z,94923.53
2022-12-01T09:52:20.941Z,94932.06
2022-12-01T09:54:47.182Z,94935.50
2022-12-01T09:57:13.442Z,94938.38
2022-12-01T09:59:39.704Z,94939.47
2022-12-01T10:02:05.970Z,94934.06
2022-12-01T10:04:32.237Z,94927.31
2022-12-01T10:06:58.498Z,94926.50
2022-12-01T10:09:24.741Z,94920.34
2022-12-01T10:11:50.995Z,94930.66
2022-12-01T10:14:19.952Z,94919.63
2022-12-01T10:16:46.958Z,94919.47
2022-12-01T10:19:13.217Z,94917.03
2022-12-01T10:21:39.461Z,94917.13
2022-12-01T10:24:05.725Z,94916.72
2022-12-01T10:26:31.990Z,94917.41
2022-12-01T10:28:58.241Z,94913.00
2022-12-01T10:31:24.541Z,94916.16
2022-12-01T10:33:50.809Z,94910.59
2022-12-01T10:36:17.057Z,94914.84
2022-12-01T10:38:43.301Z,94909.88
2022-12-01T10:41:09.561Z,94905.41
2022-12-01T10:43:35.817Z,94905.63
2022-12-01T10:46:02.113Z,94911.44
2022-12-01T10:48:28.383Z,94900.31
2022-12-01T10:50:54.637Z,94901.19
2022-12-01T10:53:20.901Z,94893.06
2022-12-01T10:55:48.188Z,94897.78
2022-12-01T10:58:14.506Z,94885.31
2022-12-01T11:00:58.969Z,94892.56
2022-12-01T11:03:25.887Z,94884.09
2022-12-01T11:05:52.302Z,94884.06
2022-12-01T11:08:18.554Z,94884.53
2022-12-01T11:10:44.920Z,94885.81
2022-12-01T11:13:11.183Z,94884.25
2022-12-01T11:15:37.423Z,94880.28
2022-12-01T11:18:03.681Z,94890.50
2022-12-01T11:20:29.940Z,94885.88
2022-12-01T11:22:56.208Z,94882.84
2022-12-01T11:25:22.436Z,94882.47
2022-12-01T11:27:48.693Z,94880.53
2022-12-01T11:30:15.050Z,94873.22
2022-12-01T11:32:41.337Z,94874.19
2022-12-01T11:35:07.594Z,94871.03
2022-12-01T11:37:33.878Z,94869.84
2022-12-01T11:40:00.133Z,94868.59
2022-12-01T11:42:26.393Z,94865.66
2022-12-01T11:44:52.664Z,94872.09
2022-12-01T11:47:23.800Z,94872.00
2022-12-01T11:49:50.875Z,94862.44
2022-12-01T11:52:17.227Z,94867.00
2022-12-01T11:54:43.587Z,94875.06
2022-12-01T11:57:33.101Z,94859.78
2022-12-01T11:59:56.260Z,94863.44
2022-12-01T12:02:22.599Z,94865.34
2022-12-01T12:04:48.895Z,94853.34
2022-12-01T12:07:15.137Z,94864.75
2022-12-01T12:09:45.818Z,94864.06
2022-12-01T12:12:12.148Z,94858.69
2022-12-01T12:14:38.394Z,94850.63
2022-12-01T12:17:04.641Z,94850.28
2022-12-01T12:19:34.239Z,94845.63
2022-12-01T12:22:11.643Z,94852.00
2022-12-01T12:24:37.888Z,94844.59
2022-12-01T12:27:04.131Z,94839.94
2022-12-01T12:29:30.363Z,94842.94
2022-12-01T12:31:56.615Z,94835.63
2022-12-01T12:34:22.882Z,94835.78
2022-12-01T12:36:49.138Z,94845.84
2022-12-01T12:39:16.955Z,94840.63
2022-12-01T12:41:43.433Z,94838.72
2022-12-01T12:44:09.678Z,94831.22
2022-12-01T12:46:35.960Z,94831.00
2022-12-01T12:51:48.542Z,94834.06
2022-12-01T12:54:14.862Z,94829.22
2022-12-01T12:56:41.177Z,94827.78
2022-12-01T12:59:07.421Z,94826.38
2022-12-01T13:01:33.737Z,94824.13
2022-12-01T13:04:00.056Z,94830.47
2022-12-01T13:06:26.322Z,94827.50
2022-12-01T13:08:52.557Z,94829.38
2022-12-01T13:11:18.875Z,94826.06
2022-12-01T13:13:45.149Z,94823.97
2022-12-01T13:16:11.428Z,94813.09
2022-12-01T13:18:37.730Z,94819.84
2022-12-01T13:21:04.009Z,94821.13
2022-12-01T13:23:30.269Z,94818.81
2022-12-01T13:25:56.509Z,94820.81
2022-12-01T13:28:22.751Z,94820.13
2022-12-01T13:30:49.079Z,94817.25
2022-12-01T13:33:15.496Z,94815.78
2022-12-01T13:35:41.776Z,94815.78
2022-12-01T13:38:08.022Z,94822.19
2022-12-01T13:40:34.271Z,94826.59
2022-12-01T13:43:04.232Z,94816.28
2022-12-01T13:45:34.751Z,94816.06
2022-12-01T13:48:01.005Z,94815.47
2022-12-01T13:50:27.273Z,94816.91
2022-12-01T13:52:53.528Z,94811.44
2022-12-01T13:55:19.777Z,94810.31
2022-12-01T13:57:46.036Z,94815.44
2022-12-01T14:00:12.377Z,94817.31
2022-12-01T14:02:38.833Z,94817.41
2022-12-01T14:05:05.155Z,94806.72
2022-12-01T14:07:31.485Z,94810.78
2022-12-01T14:09:57.793Z,94808.22
2022-12-01T14:12:24.038Z,94813.72
2022-12-01T14:14:50.293Z,94809.03
2022-12-01T14:17:16.552Z,94819.50
2022-12-01T14:19:42.827Z,94826.16
2022-12-01T14:22:09.075Z,94819.59
2022-12-01T14:24:35.321Z,94825.16
2022-12-01T14:27:01.595Z,94819.50
2022-12-01T14:29:27.837Z,94828.53
2022-12-01T14:31:54.094Z,94822.56
2022-12-01T14:34:20.343Z,94817.25
2022-12-01T14:36:46.606Z,94819.38
2022-12-01T14:39:12.873Z,94824.13
2022-12-01T14:41:39.132Z,94825.25
2022-12-01T14:44:05.387Z,94827.19
2022-12-01T14:46:31.645Z,94820.91
2022-12-01T14:48:57.914Z,94819.84
2022-12-01T14:51:24.173Z,94822.34
2022-12-01T14:53:50.441Z,94819.84
2022-12-01T14:56:16.694Z,94827.13
2022-12-01T14:58:42.938Z,94825.19
2022-12-01T15:01:09.323Z,94825.34
2022-12-01T15:03:35.719Z,94826.38
2022-12-01T15:06:01.961Z,94823.00
2022-12-01T15:11:14.453Z,94826.06
2022-12-01T15:13:40.732Z,94828.78
2022-12-01T15:16:07.019Z,94830.25
2022-12-01T15:18:33.301Z,94832.63
2022-12-01T15:20:59.548Z,94832.34
2022-12-01T15:23:25.791Z,94831.66
2022-12-01T15:25:52.035Z,94834.81
2022-12-01T15:28:18.283Z,94836.22
2022-12-01T15:30:44.547Z,94834.41
2022-12-01T15:33:10.801Z,94832.22
2022-12-01T15:35:37.065Z,94830.47
2022-12-01T15:38:03.442Z,94835.78
2022-12-01T15:43:15.905Z,94834.81
2022-12-01T15:45:42.196Z,94838.44
2022-12-01T15:48:08.454Z,94841.94
2022-12-01T15:50:34.699Z,94831.22
2022-12-01T15:53:00.940Z,94833.38
2022-12-01T15:55:27.222Z,94833.38
2022-12-01T15:57:53.489Z,94834.50
2022-12-01T16:00:19.734Z,94826.97
2022-12-01T16:02:46.946Z,94823.38
2022-12-01T16:05:13.315Z,94834.91
2022-12-01T16:08:11.531Z,94825.53
2022-12-01T16:10:25.801Z,94829.56
2022-12-01T16:12:52.077Z,94831.47
2022-12-01T16:15:18.378Z,94830.50
2022-12-01T16:17:44.815Z,94828.19
2022-12-01T16:20:11.078Z,94826.03
2022-12-01T16:22:37.337Z,94829.75
2022-12-01T16:25:03.612Z,94833.13
2022-12-01T16:27:29.902Z,94835.88
2022-12-01T16:29:56.160Z,94834.00
2022-12-01T16:32:22.538Z,94832.19
2022-12-01T16:34:48.897Z,94840.03
2022-12-01T16:37:15.158Z,94827.28
2022-12-01T16:39:41.430Z,94831.94
2022-12-01T16:42:07.720Z,94829.16
2022-12-01T16:44:34.036Z,94821.63
2022-12-01T16:47:00.282Z,94821.16
2022-12-01T16:49:26.547Z,94819.66
2022-12-01T16:51:57.044Z,94826.53
2022-12-01T16:54:23.745Z,94831.91
2022-12-01T16:56:50.003Z,94828.16
2022-12-01T16:59:16.244Z,94827.88
2022-12-01T17:01:42.537Z,94829.38
2022-12-01T17:04:08.877Z,94833.41
2022-12-01T17:06:35.130Z,94834.78
2022-12-01T17:09:01.401Z,94833.25
2022-12-01T17:11:27.657Z,94832.03
2022-12-01T17:13:53.929Z,94836.06
2022-12-01T17:16:20.205Z,94835.66
2022-12-01T17:18:46.576Z,94829.03
2022-12-01T17:21:12.836Z,94828.38
2022-12-01T17:23:39.112Z,94825.47
2022-12-01T17:26:05.362Z,94829.19
2022-12-01T17:28:31.619Z,94829.75
2022-12-01T17:30:57.950Z,94819.69
2022-12-01T17:33:24.218Z,94827.53
2022-12-01T17:35:50.466Z,94833.44
2022-12-01T17:38:16.732Z,94832.22
2022-12-01T17:40:42.982Z,94834.59
2022-12-01T17:43:09.223Z,94840.63
2022-12-01T17:45:35.466Z,94834.75
2022-12-01T17:48:01.728Z,94835.72
2022-12-01T17:50:27.997Z,94830.75
2022-12-01T17:52:54.260Z,94833.72
2022-12-01T17:55:20.513Z,94836.72
2022-12-01T17:57:46.853Z,94838.13
2022-12-01T18:00:13.117Z,94852.00
2022-12-01T18:02:39.442Z,94840.22
2022-12-01T18:05:05.880Z,94842.28
2022-12-01T18:07:32.205Z,94843.84
2022-12-01T18:09:58.506Z,94841.91
2022-12-01T18:12:24.746Z,94846.66
2022-12-01T18:14:51.356Z,94849.28
2022-12-01T18:17:17.760Z,94853.06
2022-12-01T18:19:44.009Z,94851.94
2022-12-01T18:22:10.254Z,94852.38
2022-12-01T18:24:36.557Z,94846.41
2022-12-01T18:27:02.794Z,94847.78
2022-12-01T18:29:29.052Z,94844.50
2022-12-01T18:31:55.307Z,94850.81
2022-12-01T18:34:21.577Z,94843.38
2022-12-01T18:36:47.824Z,94843.78
2022-12-01T18:39:14.074Z,94844.06
2022-12-01T18:41:40.318Z,94845.59
2022-12-01T18:44:06.585Z,94844.06
2022-12-01T18:46:32.891Z,94849.72
2022-12-01T18:48:59.171Z,94846.16
2022-12-01T18:51:25.440Z,94843.09
2022-12-01T18:53:51.682Z,94842.16
2022-12-01T18:56:19.787Z,94836.94
2022-12-01T18:58:46.220Z,94844.09
2022-12-01T19:01:12.575Z,94829.66
2022-12-01T19:03:38.898Z,94833.97
2022-12-01T19:06:05.167Z,94840.16
2022-12-01T19:08:31.419Z,94833.50
2022-12-01T19:10:57.661Z,94827.31
2022-12-01T19:13:23.915Z,94828.06
2022-12-01T19:15:50.219Z,94836.94
2022-12-01T19:18:16.512Z,94828.44
2022-12-01T19:20:42.757Z,94826.66
2022-12-01T19:23:09.004Z,94826.50
2022-12-01T19:25:35.247Z,94824.34
2022-12-01T19:28:01.491Z,94831.22
2022-12-01T19:30:27.746Z,94832.03
2022-12-01T19:32:53.987Z,94829.56
2022-12-01T19:35:20.251Z,94832.75
2022-12-01T19:37:46.519Z,94831.78
2022-12-01T19:40:12.771Z,94829.69
2022-12-01T19:42:39.012Z,94834.38
2022-12-01T19:45:05.271Z,94838.06
2022-12-01T19:47:31.535Z,94832.28
2022-12-01T19:49:57.804Z,94833.25
2022-12-01T19:52:24.056Z,94836.94
2022-12-01T19:54:50.593Z,94839.34
2022-12-01T19:57:16.992Z,94840.78
2022-12-01T19:59:43.261Z,94842.88
2022-12-01T20:02:09.554Z,94841.34
2022-12-01T20:04:35.844Z,94852.38
2022-12-01T20:07:02.107Z,94851.94
2022-12-01T20:09:28.373Z,94850.28
2022-12-01T20:11:54.631Z,94855.00
2022-12-01T20:14:20.889Z,94853.19
2022-12-01T20:16:47.246Z,94849.53
2022-12-01T20:19:13.541Z,94854.44
2022-12-01T20:21:39.801Z,94849.75
2022-12-01T20:24:06.063Z,94856.75
2022-12-01T20:26:32.325Z,94860.22
2022-12-01T20:28:58.578Z,94861.00
2022-12-01T20:31:24.860Z,94857.63
2022-12-01T20:33:51.127Z,94858.28
2022-12-01T20:36:17.380Z,94852.25
2022-12-01T20:38:43.641Z,94855.53
2022-12-01T20:41:09.901Z,94846.91
2022-12-01T20:43:36.147Z,94847.28
2022-12-01T20:46:02.643Z,94851.81
2022-12-01T20:48:28.978Z,94838.97
2022-12-01T20:50:55.222Z,94838.00
2022-12-01T20:53:21.482Z,94836.47
2022-12-01T20:55:47.730Z,94840.75
2022-12-01T20:58:13.970Z,94849.94
2022-12-01T21:00:40.266Z,94846.34
2022-12-01T21:03:06.562Z,94842.00
2022-12-01T21:05:32.816Z,94850.06
2022-12-01T21:07:59.127Z,94852.25
2022-12-01T21:10:25.422Z,94850.59
2022-12-01T21:12:51.681Z,94843.63
2022-12-01T21:15:17.929Z,94844.59
2022-12-01T21:17:44.186Z,94837.06
2022-12-01T21:20:10.457Z,94828.09
2022-12-01T21:22:36.720Z,94837.72
2022-12-01T21:25:02.985Z,94837.72
2022-12-01T21:27:29.357Z,94832.78
2022-12-01T21:29:55.621Z,94834.88
2022-12-01T21:32:21.883Z,94832.75
2022-12-01T21:34:48.297Z,94833.31
2022-12-01T21:37:14.693Z,94836.19
2022-12-01T21:39:40.954Z,94830.84
2022-12-01T21:42:07.219Z,94827.97
2022-12-01T21:44:33.473Z,94844.44
2022-12-01T21:46:59.715Z,94833.19
2022-12-01T21:49:25.969Z,94835.28
2022-12-01T21:51:52.225Z,94831.66
2022-12-01T21:54:18.501Z,94826.53
2022-12-01T21:56:44.768Z,94835.78
2022-12-01T21:59:11.032Z,94835.81
2022-12-01T22:01:37.309Z,94837.59
2022-12-01T22:04:03.653Z,94836.06
2022-12-01T22:06:30.784Z,94836.25
2022-12-01T22:08:57.359Z,94839.66
2022-12-01T22:11:23.617Z,94831.16
2022-12-01T22:13:49.880Z,94832.25
2022-12-01T22:16:16.206Z,94831.72
2022-12-01T22:18:42.484Z,94828.69
2022-12-01T22:21:08.749Z,94825.09
2022-12-01T22:23:34.994Z,94832.53
2022-12-01T22:26:01.261Z,94822.38
2022-12-01T22:28:27.511Z,94828.66
2022-12-01T22:30:53.804Z,94825.50
2022-12-01T22:33:20.099Z,94831.25
2022-12-01T22:35:46.361Z,94826.75
2022-12-01T22:38:12.613Z,94820.41
2022-12-01T22:40:38.870Z,94823.72
2022-12-01T22:43:08.499Z,94815.09
2022-12-01T22:45:38.789Z,94824.69
2022-12-01T22:48:05.039Z,94823.06
2022-12-01T22:50:31.279Z,94821.38
2022-12-01T22:52:57.533Z,94823.69
2022-12-01T22:55:23.807Z,94822.84
2022-12-01T22:57:50.072Z,94819.97
2022-12-01T23:00:16.345Z,94825.31
2022-12-01T23:02:42.656Z,94819.56
2022-12-01T23:05:08.954Z,94823.03
2022-12-01T23:07:35.490Z,94821.38
2022-12-01T23:10:01.851Z,94815.91
2022-12-01T23:12:28.788Z,94820.97
2022-12-01T23:14:55.216Z,94813.41
2022-12-01T23:17:21.516Z,94813.69
2022-12-01T23:19:47.786Z,94809.19
2022-12-01T23:22:14.063Z,94814.13
2022-12-01T23:24:40.305Z,94811.09
2022-12-01T23:27:06.591Z,94806.44
2022-12-01T23:29:32.849Z,94802.72
2022-12-01T23:31:59.130Z,94809.69
2022-12-01T23:34:25.525Z,94805.06
2022-12-01T23:36:51.766Z,94799.56
2022-12-01T23:39:18.011Z,94799.44
2022-12-01T23:41:44.274Z,94798.47
2022-12-01T23:44:10.518Z,94791.50
2022-12-01T23:46:36.831Z,94798.47
2022-12-01T23:49:03.114Z,94796.00
2022-12-01T23:51:29.388Z,94790.38
2022-12-01T23:53:55.638Z,94784.56
2022-12-01T23:56:21.899Z,94789.78
2022-12-01T23:58:48.189Z,94786.22
